.
WxDataArchive / Data Records for 2014-01-20
2014-01-19 January 2014 2014-01-21

Data Records for Monday, 20 January 2014

Time	Temp	Chill	HIndex	Humid	Dewpt	 Wind 	HiWind	WindDir	Rain 	Barom 
-----	----	-----	------	-----	-----	------	------	-------	-----	----- 
00:00	32.9	32.9	32.9	69	23.9	2	7	248	0.00	29.575 
00:05	33.1	33.1	33.1	68	23.7	2	11	248	0.00	29.575 
00:10	33.2	33.2	33.2	68	23.8	2	6	270	0.00	29.575 
00:15	33.4	33.4	33.4	68	24.0	2	5	270	0.00	29.560 
00:20	33.5	33.5	33.5	68	24.1	3	7	248	0.00	29.560 
00:25	33.7	33.7	33.7	68	24.3	2	9	248	0.00	29.560 
00:30	33.7	33.7	33.7	68	24.3	2	6	248	0.00	29.553 
00:35	33.8	33.8	33.8	68	24.4	2	7	248	0.00	29.553 
00:40	34.0	34.0	34.0	68	24.6	2	7	248	0.00	29.553 
00:45	34.0	34.0	34.0	68	24.6	2	5	248	0.00	29.554 
00:50	34.1	34.1	34.1	67	24.3	2	6	248	0.00	29.554 
00:55	34.1	34.1	34.1	67	24.3	2	5	248	0.00	29.554 
01:00	34.3	34.3	34.3	67	24.5	3	9	248	0.00	29.549 
01:05	34.4	34.4	34.4	67	24.6	3	9	248	0.00	29.549 
01:10	34.6	34.6	34.6	66	24.4	3	9	248	0.00	29.549 
01:15	34.6	34.6	34.6	66	24.4	3	8	248	0.00	29.549 
01:20	34.6	34.6	34.6	66	24.4	2	7	248	0.00	29.549 
01:25	34.7	34.7	34.7	66	24.5	2	6	248	0.00	29.549 
01:30	34.6	34.6	34.6	66	24.4	2	9	248	0.00	29.551 
01:35	34.6	34.6	34.6	66	24.4	2	5	248	0.00	29.551 
01:40	34.7	34.7	34.7	66	24.5	3	9	248	0.00	29.551 
01:45	34.7	34.7	34.7	66	24.5	1	5	248	0.00	29.542 
01:50	34.6	34.6	34.6	66	24.4	1	4	248	0.00	29.542 
01:55	34.6	34.6	34.6	66	24.4	2	5	270	0.00	29.542 
02:00	34.6	34.6	34.6	66	24.4	2	5	270	0.00	29.543 
02:05	34.6	34.6	34.6	66	24.4	1	5	248	0.00	29.543 
02:10	34.6	34.6	34.6	67	24.8	2	5	248	0.00	29.543 
02:15	34.7	34.7	34.7	67	24.9	2	7	248	0.00	29.550 
02:20	34.7	34.7	34.7	67	24.9	2	6	248	0.00	29.550 
02:25	35.0	35.0	35.0	66	24.8	2	6	248	0.00	29.550 
02:30	35.2	35.2	35.2	66	25.0	3	7	248	0.00	29.555 
02:35	35.2	35.2	35.2	66	25.0	2	5	248	0.00	29.555 
02:40	35.3	35.3	35.3	66	25.1	2	4	248	0.00	29.555 
02:45	35.3	35.3	35.3	66	25.1	2	6	248	0.00	29.562 
02:50	35.3	35.3	35.3	66	25.1	2	7	248	0.00	29.562 
02:55	35.2	35.2	35.2	67	25.4	2	5	248	0.00	29.562 
03:00	35.2	35.2	35.2	67	25.4	1	4	248	0.00	29.569 
03:05	35.0	35.0	35.0	67	25.2	2	6	248	0.00	29.569 
03:10	35.0	35.0	35.0	68	25.5	2	6	248	0.00	29.569 
03:15	35.0	35.0	35.0	68	25.5	2	7	248	0.00	29.581 
03:20	35.0	35.0	35.0	68	25.5	2	4	270	0.00	29.581 
03:25	35.2	35.2	35.2	69	26.1	1	4	270	0.00	29.581 
03:30	35.2	35.2	35.2	69	26.1	1	4	248	0.00	29.587 
03:35	35.3	35.3	35.3	69	26.2	1	4	248	0.00	29.587 
03:40	35.3	35.3	35.3	69	26.2	1	4	248	0.00	29.587 
03:45	35.3	35.3	35.3	70	26.5	1	3	248	0.00	29.596 
03:50	35.5	35.5	35.5	70	26.7	1	3	248	0.00	29.596 
03:55	35.5	35.5	35.5	70	26.7	2	4	248	0.00	29.596 
04:00	35.5	35.5	35.5	70	26.7	1	4	248	0.00	29.605 
04:05	35.5	35.5	35.5	71	27.0	1	4	248	0.00	29.605 
04:10	35.5	35.5	35.5	71	27.0	1	3	248	0.00	29.605 
04:15	35.3	35.3	35.3	71	26.9	1	6	248	0.00	29.613 
04:20	35.3	35.3	35.3	72	27.2	1	4	270	0.00	29.613 
04:25	35.3	35.3	35.3	72	27.2	1	2	270	0.00	29.613 
04:30	35.2	35.2	35.2	72	27.1	1	2	270	0.00	29.620 
04:35	35.0	35.0	35.0	73	27.2	1	3	270	0.00	29.620 
04:40	35.0	35.0	35.0	73	27.2	0	1	270	0.00	29.620 
04:45	34.9	34.9	34.9	73	27.1	0	3	248	0.00	29.629 
04:50	34.9	34.9	34.9	74	27.5	0	2	248	0.00	29.629 
04:55	34.9	34.9	34.9	74	27.5	1	2	248	0.00	29.629 
05:00	35.0	35.0	35.0	75	27.9	1	4	248	0.00	29.644 
05:05	35.0	35.0	35.0	75	27.9	1	3	270	0.00	29.644 
05:10	35.2	35.2	35.2	75	28.1	2	4	292	0.00	29.644 
05:15	35.3	35.3	35.3	75	28.2	1	4	270	0.00	29.649 
05:20	35.3	35.3	35.3	75	28.2	1	4	270	0.00	29.649 
05:25	35.5	35.5	35.5	75	28.4	2	3	270	0.00	29.649 
05:30	35.5	35.5	35.5	75	28.4	1	4	270	0.00	29.660 
05:35	35.5	35.5	35.5	75	28.4	2	5	270	0.00	29.660 
05:40	35.5	35.5	35.5	75	28.4	1	4	315	0.00	29.660 
05:45	35.3	35.3	35.3	75	28.2	0	2	292	0.00	29.662 
05:50	35.2	35.2	35.2	76	28.4	0	4	270	0.00	29.662 
05:55	35.2	35.2	35.2	76	28.4	1	2	270	0.00	29.662 
06:00	35.0	35.0	35.0	76	28.2	1	4	270	0.00	29.660 
06:05	35.0	35.0	35.0	76	28.2	0	2	270	0.00	29.660 
06:10	35.0	35.0	35.0	77	28.5	1	3	270	0.00	29.660 
06:15	35.0	35.0	35.0	77	28.5	1	2	270	0.00	29.679 
06:20	34.9	34.9	34.9	77	28.4	1	3	270	0.00	29.679 
06:25	34.9	34.9	34.9	77	28.4	1	3	248	0.00	29.679 
06:30	34.9	34.9	34.9	77	28.4	1	3	248	0.00	29.683 
06:35	34.9	34.9	34.9	77	28.4	0	2	292	0.00	29.683 
06:40	34.7	34.7	34.7	78	28.6	0	2	292	0.00	29.683 
06:45	34.7	34.7	34.7	78	28.6	1	4	292	0.00	29.689 
06:50	34.7	34.7	34.7	78	28.6	1	3	248	0.00	29.689 
06:55	34.7	34.7	34.7	78	28.6	1	3	248	0.00	29.689 
07:00	34.6	34.6	34.6	78	28.5	1	3	248	0.00	29.702 
07:05	34.6	34.6	34.6	78	28.5	1	3	248	0.00	29.702 
07:10	34.6	34.6	34.6	78	28.5	1	2	248	0.00	29.702 
07:15	34.6	34.6	34.6	78	28.5	0	2	248	0.00	29.709 
07:20	34.6	34.6	34.6	78	28.5	1	3	270	0.00	29.709 
07:25	34.6	34.6	34.6	78	28.5	1	4	270	0.00	29.709 
07:30	34.6	34.6	34.6	78	28.5	1	3	315	0.00	29.726 
07:35	34.6	34.6	34.6	79	28.8	1	3	315	0.00	29.726 
07:40	34.4	34.4	34.4	78	28.3	1	3	315	0.00	29.726 
07:45	34.4	34.4	34.4	78	28.3	1	3	315	0.00	29.739 
07:50	34.4	34.4	34.4	77	27.9	2	5	315	0.00	29.739 
07:55	34.4	34.4	34.4	77	27.9	0	3	292	0.01	29.739 
08:00	34.3	34.3	34.3	76	27.5	1	4	292	0.00	29.760 
08:05	34.3	34.3	34.3	75	27.2	1	4	338	0.00	29.760 
08:10	34.1	34.1	34.1	75	27.0	1	4	338	0.00	29.760 
08:15	34.0	34.0	34.0	75	26.9	3	8	292	0.00	29.757 
08:20	33.8	33.8	33.8	75	26.7	1	5	338	0.00	29.757 
08:25	33.5	33.5	33.5	75	26.4	3	7	292	0.00	29.757 
08:30	33.2	33.2	33.2	73	25.5	2	6	315	0.00	29.771 
08:35	32.9	32.9	32.9	69	23.9	3	7	292	0.00	29.771 
08:40	32.8	32.8	32.8	69	23.8	3	6	0	0.00	29.771 
08:45	32.7	32.7	32.7	70	24.0	3	7	315	0.00	29.787 
08:50	32.5	32.5	32.5	70	23.8	3	7	292	0.00	29.787 
08:55	32.4	32.4	32.4	69	23.4	1	4	338	0.00	29.787 
09:00	32.2	32.2	32.2	70	23.5	2	6	338	0.00	29.795 
09:05	32.1	32.1	32.1	70	23.4	2	7	315	0.00	29.795 
09:10	31.6	31.6	31.6	69	22.6	2	5	315	0.00	29.795 
09:15	31.5	31.5	31.5	69	22.5	2	7	315	0.00	29.801 
09:20	31.3	31.3	31.3	69	22.3	1	4	292	0.00	29.801 
09:25	31.2	31.2	31.2	69	22.2	2	5	292	0.00	29.801 
09:30	31.3	31.3	31.3	69	22.3	2	5	270	0.00	29.816 
09:35	31.2	31.2	31.2	68	21.9	2	5	292	0.00	29.816 
09:40	31.0	31.0	31.0	68	21.7	2	7	315	0.00	29.816 
09:45	30.7	30.7	30.7	67	21.1	2	5	270	0.00	29.823 
09:50	30.6	30.6	30.6	67	21.0	2	5	0	0.00	29.823 
09:55	30.6	30.6	30.6	67	21.0	2	6	0	0.00	29.823 
10:00	30.7	30.7	30.7	66	20.7	2	7	315	0.00	29.832 
10:05	30.9	30.9	30.9	66	20.9	1	5	315	0.00	29.832 
10:10	31.0	31.0	31.0	65	20.6	2	5	292	0.00	29.832 
10:15	31.2	31.2	31.2	65	20.8	2	4	292	0.00	29.837 
10:20	31.3	31.3	31.3	64	20.6	3	6	292	0.00	29.837 
10:25	31.3	31.3	31.3	63	20.2	3	6	315	0.00	29.837 
10:30	31.3	31.3	31.3	64	20.6	2	4	292	0.00	29.845 
10:35	31.5	31.5	31.5	64	20.7	2	6	292	0.00	29.845 
10:40	31.3	31.3	31.3	64	20.6	2	5	292	0.00	29.845 
10:45	31.3	31.3	31.3	64	20.6	2	5	292	0.00	29.852 
10:50	31.2	31.2	31.2	64	20.5	2	5	270	0.00	29.852 
10:55	31.2	31.2	31.2	65	20.8	1	5	292	0.00	29.852 
11:00	31.2	31.2	31.2	64	20.5	2	6	338	0.00	29.854 
11:05	31.0	31.0	31.0	64	20.3	2	4	292	0.00	29.854 
11:10	31.2	31.2	31.2	65	20.8	1	5	315	0.01	29.854 
11:15	31.2	31.2	31.2	64	20.5	1	3	292	0.00	29.864 
11:20	31.5	31.5	31.5	64	20.7	1	4	270	0.00	29.864 
11:25	31.5	31.5	31.5	64	20.7	2	4	270	0.00	29.864 
11:30	31.3	31.3	31.3	64	20.6	2	5	338	0.00	29.871 
11:35	31.5	31.5	31.5	64	20.7	1	3	292	0.00	29.871 
11:40	31.5	31.5	31.5	64	20.7	1	4	292	0.00	29.871 
11:45	31.5	31.5	31.5	64	20.7	1	3	292	0.01	29.876 
11:50	31.6	31.6	31.6	64	20.8	1	5	292	0.00	29.876 
11:55	31.3	31.3	31.3	63	20.2	3	8	315	0.00	29.876 
12:00	31.2	31.2	31.2	64	20.5	2	4	292	0.00	29.871 
12:05	31.2	31.2	31.2	64	20.5	2	5	338	0.00	29.871 
12:10	31.2	31.2	31.2	63	20.1	2	6	292	0.00	29.871 
12:15	31.2	31.2	31.2	63	20.1	2	7	338	0.01	29.880 
12:20	31.3	31.3	31.3	63	20.2	1	4	338	0.00	29.880 
12:25	31.5	31.5	31.5	62	20.0	1	4	248	0.00	29.880 
12:30	31.6	31.6	31.6	61	19.7	1	3	0	0.00	29.874 
12:35	31.9	31.9	31.9	62	20.4	1	2	0	0.00	29.874 
12:40	32.1	32.1	32.1	60	19.8	1	3	0	0.00	29.874 
12:45	32.2	32.2	32.2	61	20.3	1	3	0	0.00	29.868 
12:50	32.4	32.4	32.4	61	20.5	1	4	0	0.01	29.868 
12:55	32.4	32.4	32.4	61	20.5	1	4	338	0.00	29.868 
13:00	32.4	32.4	32.4	61	20.5	2	4	248	0.00	29.874 
13:05	32.5	32.5	32.5	61	20.6	1	2	248	0.01	29.874 
13:10	32.8	32.8	32.8	61	20.9	1	3	248	0.00	29.874 
13:15	32.9	32.9	32.9	60	20.6	1	2	248	0.00	29.865 
13:20	32.9	32.9	32.9	61	20.9	1	3	248	0.00	29.865 
13:25	32.9	32.9	32.9	61	20.9	1	3	248	0.00	29.865 
13:30	32.7	32.7	32.7	62	21.1	1	3	248	0.01	29.867 
13:35	32.7	32.7	32.7	63	21.5	1	3	248	0.00	29.867 
13:40	32.8	32.8	32.8	63	21.6	1	3	248	0.00	29.867 
13:45	32.9	32.9	32.9	63	21.7	1	2	248	0.00	29.862 
13:50	33.4	33.4	33.4	64	22.6	0	2	248	0.00	29.862 
13:55	33.8	33.8	33.8	62	22.2	1	2	248	0.01	29.862 
14:00	34.0	34.0	34.0	62	22.4	1	3	248	0.00	29.860 
14:05	34.3	34.3	34.3	63	23.0	1	3	248	0.00	29.860 
14:10	34.1	34.1	34.1	62	22.5	1	2	248	0.00	29.860 
14:15	33.7	33.7	33.7	62	22.1	1	3	248	0.00	29.861 
14:20	33.5	33.5	33.5	63	22.3	1	3	248	0.00	29.861 
14:25	33.4	33.4	33.4	64	22.6	1	2	248	0.00	29.861 
14:30	33.5	33.5	33.5	65	23.0	0	1	248	0.00	29.862 
14:35	33.8	33.8	33.8	64	22.9	1	3	248	0.00	29.862 
14:40	34.0	34.0	34.0	64	23.1	1	2	248	0.00	29.862 
14:45	34.0	34.0	34.0	64	23.1	1	3	248	0.00	29.861 
14:50	33.8	33.8	33.8	64	22.9	1	2	248	0.00	29.861 
14:55	33.8	33.8	33.8	64	22.9	1	2	248	0.00	29.861 
15:00	33.8	33.8	33.8	65	23.3	1	4	248	0.00	29.864 
15:05	33.8	33.8	33.8	65	23.3	1	3	248	0.01	29.864 
15:10	33.5	33.5	33.5	65	23.0	1	2	248	0.00	29.864 
15:15	33.4	33.4	33.4	65	22.9	0	2	248	0.00	29.874 
15:20	33.4	33.4	33.4	66	23.3	1	2	248	0.00	29.874 
15:25	33.2	33.2	33.2	66	23.1	1	2	248	0.00	29.874 
15:30	33.2	33.2	33.2	66	23.1	0	2	248	0.00	29.875 
15:35	33.5	33.5	33.5	67	23.7	0	1	248	0.00	29.875 
15:40	33.7	33.7	33.7	67	23.9	0	1	248	0.00	29.875 
15:45	33.7	33.7	33.7	67	23.9	0	2	248	0.00	29.867 
15:50	33.8	33.8	33.8	67	24.0	0	2	248	0.00	29.867 
15:55	33.8	33.8	33.8	67	24.0	1	3	248	0.00	29.867 
16:00	33.7	33.7	33.7	67	23.9	1	2	248	0.00	29.873 
16:05	33.7	33.7	33.7	67	23.9	0	2	248	0.00	29.873 
16:10	33.7	33.7	33.7	68	24.3	0	3	248	0.00	29.873 
16:15	33.5	33.5	33.5	67	23.7	1	3	248	0.00	29.877 
16:20	33.4	33.4	33.4	68	24.0	1	4	248	0.00	29.877 
16:25	33.2	33.2	33.2	68	23.8	1	3	248	0.00	29.877 
16:30	33.2	33.2	33.2	68	23.8	1	2	248	0.01	29.877 
16:35	33.2	33.2	33.2	69	24.2	0	1	248	0.00	29.877 
16:40	33.1	33.1	33.1	69	24.1	0	2	248	0.00	29.877 
16:45	33.2	33.2	33.2	70	24.5	0	1	248	0.00	29.885 
16:50	33.1	33.1	33.1	69	24.1	1	3	248	0.00	29.885 
16:55	33.1	33.1	33.1	69	24.1	0	2	248	0.00	29.885 
17:00	33.1	33.1	33.1	70	24.4	0	1	248	0.00	29.886 
17:05	33.1	33.1	33.1	70	24.4	0	1	248	0.00	29.886 
17:10	32.9	32.9	32.9	71	24.5	0	1	248	0.00	29.886 
17:15	32.9	32.9	32.9	71	24.5	0	1	248	0.00	29.886 
17:20	32.9	32.9	32.9	71	24.5	0	0	---	0.00	29.886 
17:25	32.8	32.8	32.8	71	24.4	0	1	248	0.00	29.886 
17:30	32.7	32.7	32.7	71	24.4	0	1	248	0.01	29.890 
17:35	32.5	32.5	32.5	72	24.5	0	1	248	0.00	29.890 
17:40	32.4	32.4	32.4	72	24.4	0	1	248	0.00	29.890 
17:45	32.4	32.4	32.4	73	24.7	0	1	248	0.00	29.894 
17:50	32.2	32.2	32.2	73	24.5	0	0	---	0.00	29.894 
17:55	32.1	32.1	32.1	74	24.8	0	0	---	0.00	29.894 
18:00	31.9	31.9	31.9	74	24.6	0	0	---	0.00	29.895 
18:05	31.9	31.9	31.9	74	24.6	0	1	248	0.00	29.895 
18:10	31.8	31.8	31.8	75	24.8	0	0	---	0.00	29.895 
18:15	31.6	31.6	31.6	75	24.6	0	1	248	0.00	29.899 
18:20	31.6	31.6	31.6	75	24.6	0	0	---	0.00	29.899 
18:25	31.5	31.5	31.5	75	24.5	0	1	248	0.00	29.899 
18:30	31.5	31.5	31.5	75	24.5	0	1	248	0.00	29.910 
18:35	31.5	31.5	31.5	75	24.5	0	0	---	0.00	29.910 
18:40	31.3	31.3	31.3	75	24.3	0	0	---	0.00	29.910 
18:45	31.3	31.3	31.3	75	24.3	0	0	---	0.00	29.911 
18:50	31.2	31.2	31.2	76	24.5	0	0	---	0.00	29.911 
18:55	31.2	31.2	31.2	76	24.5	0	0	---	0.00	29.911 
19:00	31.2	31.2	31.2	76	24.5	0	0	---	0.00	29.912 
19:05	31.0	31.0	31.0	77	24.7	0	0	---	0.00	29.912 
19:10	31.0	31.0	31.0	77	24.7	0	0	---	0.00	29.912 
19:15	30.9	30.9	30.9	77	24.6	0	0	---	0.00	29.913 
19:20	30.7	30.7	30.7	77	24.4	0	0	---	0.00	29.913 
19:25	30.7	30.7	30.7	78	24.7	0	0	---	0.00	29.913 
19:30	30.6	30.6	30.6	78	24.6	0	0	---	0.00	29.912 
19:35	30.6	30.6	30.6	79	24.9	0	0	---	0.00	29.912 
19:40	30.4	30.4	30.4	79	24.7	0	0	---	0.00	29.912 
19:45	30.4	30.4	30.4	79	24.7	0	0	---	0.00	29.914 
19:50	30.4	30.4	30.4	79	24.7	0	0	---	0.00	29.914 
19:55	30.4	30.4	30.4	80	25.0	0	0	---	0.00	29.914 
20:00	30.3	30.3	30.3	80	24.9	0	0	---	0.00	29.916 
20:05	30.3	30.3	30.3	80	24.9	0	0	---	0.00	29.916 
20:10	30.3	30.3	30.3	80	24.9	0	0	---	0.00	29.916 
20:15	30.3	30.3	30.3	80	24.9	0	0	---	0.00	29.919 
20:20	30.3	30.3	30.3	81	25.2	0	0	---	0.00	29.919 
20:25	30.4	30.4	30.4	80	25.0	0	0	---	0.00	29.919 
20:30	30.4	30.4	30.4	80	25.0	0	0	---	0.00	29.916 
20:35	30.4	30.4	30.4	81	25.3	1	3	248	0.00	29.916 
20:40	30.4	30.4	30.4	80	25.0	1	4	248	0.00	29.916 
20:45	30.4	30.4	30.4	80	25.0	0	3	248	0.00	29.921 
20:50	30.3	30.3	30.3	80	24.9	1	3	180	0.00	29.921 
20:55	30.1	30.1	30.1	80	24.7	0	2	180	0.00	29.921 
21:00	30.0	30.0	30.0	79	24.3	1	4	180	0.00	29.930 
21:05	29.4	29.4	29.4	77	23.1	1	11	112	0.00	29.930 
21:10	28.8	28.8	28.8	76	22.2	1	3	338	0.00	29.930 
21:15	28.4	28.4	28.4	74	21.2	1	5	338	0.00	29.941 
21:20	27.9	27.9	27.9	73	20.4	1	5	68	0.00	29.941 
21:25	27.5	27.5	27.5	73	20.0	1	6	338	0.00	29.941 
21:30	27.2	27.2	27.2	73	19.7	1	5	338	0.00	29.942 
21:35	26.9	26.9	26.9	73	19.4	2	10	112	0.00	29.942 
21:40	26.7	26.7	26.7	73	19.2	1	3	112	0.00	29.942 
21:45	26.6	26.6	26.6	74	19.5	1	6	68	0.00	29.939 
21:50	26.4	26.4	26.4	74	19.3	2	6	45	0.00	29.939 
21:55	26.3	26.3	26.3	75	19.5	1	5	112	0.00	29.939 
22:00	26.1	26.1	26.1	75	19.3	2	7	90	0.00	29.952 
22:05	26.0	26.0	26.0	75	19.2	1	4	68	0.00	29.952 
22:10	25.8	25.8	25.8	76	19.3	2	11	112	0.00	29.952 
22:15	25.6	25.6	25.6	76	19.1	1	4	45	0.00	29.958 
22:20	25.4	25.4	25.4	77	19.2	1	5	338	0.00	29.958 
22:25	25.3	25.3	25.3	77	19.1	1	3	135	0.00	29.958 
22:30	25.1	25.1	25.1	78	19.2	2	5	135	0.00	29.958 
22:35	24.8	24.8	24.8	78	18.9	2	5	112	0.00	29.958 
22:40	24.7	24.7	24.7	79	19.1	1	3	338	0.00	29.958 
22:45	24.7	24.7	24.7	80	19.4	1	3	90	0.00	29.953 
22:50	24.5	24.5	24.5	80	19.2	1	4	45	0.00	29.953 
22:55	24.4	24.4	24.4	81	19.4	1	4	45	0.00	29.953 
23:00	24.2	24.2	24.2	81	19.2	1	4	45	0.00	29.954 
23:05	24.1	24.1	24.1	82	19.4	1	5	90	0.00	29.954 
23:10	23.9	23.9	23.9	82	19.2	1	5	90	0.00	29.954 
23:15	23.8	23.8	23.8	83	19.4	1	4	112	0.00	29.956 
23:20	23.6	23.6	23.6	83	19.2	1	5	68	0.00	29.956 
23:25	23.5	23.5	23.5	83	19.1	1	4	68	0.00	29.956 
23:30	23.3	23.3	23.3	83	18.9	2	9	90	0.00	29.957 
23:35	23.0	23.0	23.0	83	18.6	2	7	90	0.00	29.957 
23:40	22.7	22.7	22.7	82	18.0	2	9	90	0.00	29.957 
23:45	22.4	22.4	22.4	82	17.8	2	5	45	0.00	29.954 
23:50	22.4	22.4	22.4	82	17.8	1	5	45	0.00	29.954 
23:55	22.2	22.2	22.2	82	17.6	1	4	22	0.00	29.954 

CoCoRaHS
IN-AL-39
A2 Web Hosting
Creative Commons License
GoDaddy
search engine by freefind advanced

loaded 2018-11-12 15:44:05 • last modified 2010-11-18 10:43:29
Privacy PolicyDisclaimer
• wx.awcolley.com is powered by PmWiki v.2002016 •
• all content (unless otherwise noted) © 2018 A W Colley